sensor_id;sensor_type;location;lat;lon;timestamp;pressure;altitude;pressure_sealevel;temperature;humidity
27984;BME280;15317;50.360;8.726;2023-03-22T00:00:32;99185.09;;;6.96;100.00
27984;BME280;15317;50.360;8.726;2023-03-22T00:04:35;99184.41;;;6.94;100.00
27984;BME280;15317;50.360;8.726;2023-03-22T00:08:38;99189.94;;;6.93;100.00
27984;BME280;15317;50.360;8.726;2023-03-22T00:12:40;99184.81;;;6.90;100.00
27984;BME280;15317;50.360;8.726;2023-03-22T00:16:42;99178.72;;;6.88;100.00
27984;BME280;15317;50.360;8.726;2023-03-22T00:20:46;99178.00;;;6.86;100.00
27984;BME280;15317;50.360;8.726;2023-03-22T00:24:50;99178.00;;;6.86;100.00
27984;BME280;15317;50.360;8.726;2023-03-22T00:28:52;99173.75;;;6.83;100.00
27984;BME280;15317;50.360;8.726;2023-03-22T00:32:54;99171.22;;;6.82;100.00
27984;BME280;15317;50.360;8.726;2023-03-22T00:36:55;99161.81;;;6.76;100.00
27984;BME280;15317;50.360;8.726;2023-03-22T00:41:05;99156.59;;;6.74;100.00
27984;BME280;15317;50.360;8.726;2023-03-22T00:45:09;99143.38;;;6.71;100.00
27984;BME280;15317;50.360;8.726;2023-03-22T00:49:12;99142.50;;;6.71;100.00
27984;BME280;15317;50.360;8.726;2023-03-22T00:53:14;99133.44;;;6.72;100.00
27984;BME280;15317;50.360;8.726;2023-03-22T00:57:17;99140.66;;;6.71;100.00
27984;BME280;15317;50.360;8.726;2023-03-22T01:01:20;99137.97;;;6.71;100.00
27984;BME280;15317;50.360;8.726;2023-03-22T01:05:22;99126.63;;;6.68;100.00
27984;BME280;15317;50.360;8.726;2023-03-22T01:09:24;99122.75;;;6.70;100.00
27984;BME280;15317;50.360;8.726;2023-03-22T01:13:29;99120.38;;;6.67;100.00
27984;BME280;15317;50.360;8.726;2023-03-22T01:17:31;99119.53;;;6.67;100.00
27984;BME280;15317;50.360;8.726;2023-03-22T01:25:48;99123.75;;;6.69;100.00
27984;BME280;15317;50.360;8.726;2023-03-22T01:29:52;99118.09;;;6.72;100.00
27984;BME280;15317;50.360;8.726;2023-03-22T01:33:54;99109.41;;;6.69;100.00
27984;BME280;15317;50.360;8.726;2023-03-22T01:37:56;99111.56;;;6.65;100.00
27984;BME280;15317;50.360;8.726;2023-03-22T01:41:58;99105.88;;;6.59;100.00
27984;BME280;15317;50.360;8.726;2023-03-22T01:46:01;99108.44;;;6.51;100.00
27984;BME280;15317;50.360;8.726;2023-03-22T01:50:04;99099.09;;;6.45;100.00
27984;BME280;15317;50.360;8.726;2023-03-22T01:54:08;99100.66;;;6.38;100.00
27984;BME280;15317;50.360;8.726;2023-03-22T01:58:12;99092.84;;;6.35;100.00
27984;BME280;15317;50.360;8.726;2023-03-22T02:02:17;99089.72;;;6.30;100.00
27984;BME280;15317;50.360;8.726;2023-03-22T02:06:19;99089.44;;;6.33;100.00
27984;BME280;15317;50.360;8.726;2023-03-22T02:10:24;99089.44;;;6.33;100.00
27984;BME280;15317;50.360;8.726;2023-03-22T02:14:41;99070.44;;;6.34;100.00
27984;BME280;15317;50.360;8.726;2023-03-22T02:18:58;99069.59;;;6.34;100.00
27984;BME280;15317;50.360;8.726;2023-03-22T02:23:37;99066.59;;;6.27;100.00
27984;BME280;15317;50.360;8.726;2023-03-22T02:28:13;99059.63;;;6.25;100.00
27984;BME280;15317;50.360;8.726;2023-03-22T02:32:42;99056.81;;;6.17;100.00
27984;BME280;15317;50.360;8.726;2023-03-22T02:37:06;99056.66;;;6.09;100.00
27984;BME280;15317;50.360;8.726;2023-03-22T02:41:16;99060.63;;;6.24;100.00
27984;BME280;15317;50.360;8.726;2023-03-22T02:45:28;99064.88;;;6.17;100.00
27984;BME280;15317;50.360;8.726;2023-03-22T02:49:36;99063.63;;;6.21;100.00
27984;BME280;15317;50.360;8.726;2023-03-22T02:53:44;99055.97;;;6.26;100.00
27984;BME280;15317;50.360;8.726;2023-03-22T02:57:51;99057.34;;;6.30;100.00
27984;BME280;15317;50.360;8.726;2023-03-22T03:01:58;99055.94;;;6.45;100.00
27984;BME280;15317;50.360;8.726;2023-03-22T03:06:05;99054.88;;;6.65;100.00
27984;BME280;15317;50.360;8.726;2023-03-22T03:10:11;99055.03;;;6.73;100.00
27984;BME280;15317;50.360;8.726;2023-03-22T03:14:22;99061.81;;;6.78;100.00
27984;BME280;15317;50.360;8.726;2023-03-22T03:18:31;99056.47;;;6.68;100.00
27984;BME280;15317;50.360;8.726;2023-03-22T03:22:46;99056.88;;;6.63;100.00
27984;BME280;15317;50.360;8.726;2023-03-22T03:26:59;99064.25;;;6.71;100.00
27984;BME280;15317;50.360;8.726;2023-03-22T03:31:12;99060.41;;;6.73;100.00
27984;BME280;15317;50.360;8.726;2023-03-22T03:35:18;99050.31;;;6.75;100.00
27984;BME280;15317;50.360;8.726;2023-03-22T03:39:24;99056.41;;;6.78;100.00
27984;BME280;15317;50.360;8.726;2023-03-22T03:43:29;99043.78;;;6.78;100.00
27984;BME280;15317;50.360;8.726;2023-03-22T03:47:34;99047.31;;;6.88;100.00
27984;BME280;15317;50.360;8.726;2023-03-22T03:51:45;99046.19;;;6.81;100.00
27984;BME280;15317;50.360;8.726;2023-03-22T03:55:48;99041.66;;;6.82;100.00
27984;BME280;15317;50.360;8.726;2023-03-22T03:59:49;99039.34;;;6.87;100.00
27984;BME280;15317;50.360;8.726;2023-03-22T04:03:53;99028.94;;;6.92;100.00
27984;BME280;15317;50.360;8.726;2023-03-22T04:07:55;99034.34;;;6.92;100.00
27984;BME280;15317;50.360;8.726;2023-03-22T04:11:57;99024.88;;;6.88;100.00
27984;BME280;15317;50.360;8.726;2023-03-22T04:15:59;99025.13;;;6.85;100.00
27984;BME280;15317;50.360;8.726;2023-03-22T04:20:04;99024.16;;;6.76;100.00
27984;BME280;15317;50.360;8.726;2023-03-22T04:24:07;99021.22;;;6.69;100.00
27984;BME280;15317;50.360;8.726;2023-03-22T04:28:09;99014.69;;;6.62;100.00
27984;BME280;15317;50.360;8.726;2023-03-22T04:32:14;99018.84;;;6.57;100.00
27984;BME280;15317;50.360;8.726;2023-03-22T04:36:19;99016.19;;;6.47;100.00
27984;BME280;15317;50.360;8.726;2023-03-22T04:40:22;99010.78;;;6.38;100.00
27984;BME280;15317;50.360;8.726;2023-03-22T04:44:26;99004.28;;;6.30;100.00
27984;BME280;15317;50.360;8.726;2023-03-22T04:48:28;99008.28;;;6.17;100.00
27984;BME280;15317;50.360;8.726;2023-03-22T04:52:31;98995.22;;;6.03;100.00
27984;BME280;15317;50.360;8.726;2023-03-22T04:56:33;98988.28;;;5.90;100.00
27984;BME280;15317;50.360;8.726;2023-03-22T05:00:35;98988.41;;;5.79;100.00
27984;BME280;15317;50.360;8.726;2023-03-22T05:04:37;98992.94;;;5.69;100.00
27984;BME280;15317;50.360;8.726;2023-03-22T05:08:41;98990.94;;;5.62;100.00
27984;BME280;15317;50.360;8.726;2023-03-22T05:12:43;98997.75;;;5.56;100.00
27984;BME280;15317;50.360;8.726;2023-03-22T05:16:45;99002.72;;;5.51;100.00
27984;BME280;15317;50.360;8.726;2023-03-22T05:20:47;99004.25;;;5.44;100.00
27984;BME280;15317;50.360;8.726;2023-03-22T05:24:52;99008.78;;;5.53;100.00
27984;BME280;15317;50.360;8.726;2023-03-22T05:28:54;99010.50;;;5.54;100.00
27984;BME280;15317;50.360;8.726;2023-03-22T05:32:57;99006.38;;;5.50;100.00
27984;BME280;15317;50.360;8.726;2023-03-22T05:37:02;99008.22;;;5.49;100.00
27984;BME280;15317;50.360;8.726;2023-03-22T05:41:06;99010.06;;;5.49;100.00
27984;BME280;15317;50.360;8.726;2023-03-22T05:45:09;99010.66;;;5.52;100.00
27984;BME280;15317;50.360;8.726;2023-03-22T05:49:11;99019.72;;;5.61;100.00
27984;BME280;15317;50.360;8.726;2023-03-22T05:53:13;99002.16;;;5.76;100.00
27984;BME280;15317;50.360;8.726;2023-03-22T05:57:16;99007.88;;;5.92;100.00
27984;BME280;15317;50.360;8.726;2023-03-22T06:01:18;99010.94;;;6.36;100.00
27984;BME280;15317;50.360;8.726;2023-03-22T06:05:21;99018.13;;;7.01;100.00
27984;BME280;15317;50.360;8.726;2023-03-22T06:09:23;99016.34;;;8.00;100.00
27984;BME280;15317;50.360;8.726;2023-03-22T06:13:27;99006.13;;;9.49;100.00
27984;BME280;15317;50.360;8.726;2023-03-22T06:17:29;99003.63;;;10.93;100.00
27984;BME280;15317;50.360;8.726;2023-03-22T06:21:31;99017.69;;;11.91;100.00
27984;BME280;15317;50.360;8.726;2023-03-22T06:25:33;99031.34;;;12.28;96.79
27984;BME280;15317;50.360;8.726;2023-03-22T06:29:36;99029.72;;;12.80;95.31
27984;BME280;15317;50.360;8.726;2023-03-22T06:33:38;99042.22;;;13.41;89.72
27984;BME280;15317;50.360;8.726;2023-03-22T06:37:40;99036.84;;;13.62;84.55
27984;BME280;15317;50.360;8.726;2023-03-22T06:41:42;99045.88;;;13.48;85.45
27984;BME280;15317;50.360;8.726;2023-03-22T06:45:46;99057.00;;;12.57;90.00
27984;BME280;15317;50.360;8.726;2023-03-22T06:49:48;99048.34;;;11.46;96.64
27984;BME280;15317;50.360;8.726;2023-03-22T06:53:50;99048.94;;;11.17;100.00
27984;BME280;15317;50.360;8.726;2023-03-22T06:57:52;99048.06;;;11.25;100.00
27984;BME280;15317;50.360;8.726;2023-03-22T07:01:55;99056.47;;;10.91;100.00
27984;BME280;15317;50.360;8.726;2023-03-22T07:06:00;99048.31;;;10.91;100.00
27984;BME280;15317;50.360;8.726;2023-03-22T07:10:03;99047.81;;;10.95;100.00
27984;BME280;15317;50.360;8.726;2023-03-22T07:14:07;99055.03;;;11.19;100.00
27984;BME280;15317;50.360;8.726;2023-03-22T07:18:10;99055.03;;;11.19;100.00
27984;BME280;15317;50.360;8.726;2023-03-22T07:22:12;99061.72;;;11.00;100.00
27984;BME280;15317;50.360;8.726;2023-03-22T07:26:15;99051.38;;;10.88;100.00
27984;BME280;15317;50.360;8.726;2023-03-22T07:30:17;99062.88;;;11.14;100.00
27984;BME280;15317;50.360;8.726;2023-03-22T07:34:20;99048.72;;;11.27;100.00
27984;BME280;15317;50.360;8.726;2023-03-22T07:38:22;99049.34;;;10.98;100.00
27984;BME280;15317;50.360;8.726;2023-03-22T07:42:24;99039.66;;;10.95;100.00
27984;BME280;15317;50.360;8.726;2023-03-22T07:46:26;99040.03;;;10.84;100.00
27984;BME280;15317;50.360;8.726;2023-03-22T07:50:29;99032.72;;;10.77;100.00
27984;BME280;15317;50.360;8.726;2023-03-22T07:54:31;99026.22;;;11.02;100.00
27984;BME280;15317;50.360;8.726;2023-03-22T07:58:33;99034.66;;;11.23;100.00
27984;BME280;15317;50.360;8.726;2023-03-22T08:02:35;99033.59;;;11.32;100.00
27984;BME280;15317;50.360;8.726;2023-03-22T08:06:40;99039.66;;;11.42;100.00
27984;BME280;15317;50.360;8.726;2023-03-22T08:10:47;99034.22;;;11.42;100.00
27984;BME280;15317;50.360;8.726;2023-03-22T08:14:49;99042.41;;;11.34;100.00
27984;BME280;15317;50.360;8.726;2023-03-22T08:18:52;99037.00;;;11.73;100.00
27984;BME280;15317;50.360;8.726;2023-03-22T08:22:56;99037.41;;;11.93;100.00
27984;BME280;15317;50.360;8.726;2023-03-22T08:26:58;99031.25;;;12.22;100.00
27984;BME280;15317;50.360;8.726;2023-03-22T08:31:00;99032.47;;;12.19;100.00
27984;BME280;15317;50.360;8.726;2023-03-22T08:35:04;99036.13;;;11.73;100.00
27984;BME280;15317;50.360;8.726;2023-03-22T08:39:07;99031.75;;;11.64;100.00
27984;BME280;15317;50.360;8.726;2023-03-22T08:43:10;99035.91;;;11.52;100.00
27984;BME280;15317;50.360;8.726;2023-03-22T08:47:12;99035.50;;;11.24;100.00
27984;BME280;15317;50.360;8.726;2023-03-22T08:51:14;99023.94;;;11.22;100.00
27984;BME280;15317;50.360;8.726;2023-03-22T08:55:17;99019.75;;;11.11;100.00
27984;BME280;15317;50.360;8.726;2023-03-22T08:59:19;99010.94;;;11.40;100.00
27984;BME280;15317;50.360;8.726;2023-03-22T09:03:21;99007.34;;;11.86;100.00
27984;BME280;15317;50.360;8.726;2023-03-22T09:07:26;99008.03;;;12.11;100.00
27984;BME280;15317;50.360;8.726;2023-03-22T09:11:29;98987.63;;;12.68;100.00
27984;BME280;15317;50.360;8.726;2023-03-22T09:15:31;99003.19;;;13.26;93.94
27984;BME280;15317;50.360;8.726;2023-03-22T09:19:33;98990.72;;;13.67;89.49
27984;BME280;15317;50.360;8.726;2023-03-22T09:23:36;98986.53;;;14.07;88.25
27984;BME280;15317;50.360;8.726;2023-03-22T09:27:39;98998.91;;;13.67;85.47
27984;BME280;15317;50.360;8.726;2023-03-22T09:31:41;98977.78;;;13.40;89.97
27984;BME280;15317;50.360;8.726;2023-03-22T09:35:44;98996.97;;;13.02;92.87
27984;BME280;15317;50.360;8.726;2023-03-22T09:39:46;98982.47;;;12.87;94.61
27984;BME280;15317;50.360;8.726;2023-03-22T09:43:52;98971.84;;;12.92;92.62
27984;BME280;15317;50.360;8.726;2023-03-22T09:47:56;98974.66;;;12.84;88.52
27984;BME280;15317;50.360;8.726;2023-03-22T09:51:59;98975.25;;;13.24;88.85
27984;BME280;15317;50.360;8.726;2023-03-22T09:56:07;98978.66;;;13.26;83.44
27984;BME280;15317;50.360;8.726;2023-03-22T10:00:17;98974.31;;;13.02;81.20
27984;BME280;15317;50.360;8.726;2023-03-22T10:04:28;98971.47;;;13.10;81.45
27984;BME280;15317;50.360;8.726;2023-03-22T10:08:44;98966.41;;;13.07;82.52
27984;BME280;15317;50.360;8.726;2023-03-22T10:12:53;98956.06;;;13.32;80.44
27984;BME280;15317;50.360;8.726;2023-03-22T10:17:03;98960.72;;;13.17;81.58
27984;BME280;15317;50.360;8.726;2023-03-22T10:21:08;98960.13;;;13.21;81.39
27984;BME280;15317;50.360;8.726;2023-03-22T10:25:14;98964.34;;;13.09;82.66
27984;BME280;15317;50.360;8.726;2023-03-22T10:29:21;98964.13;;;13.11;84.72
27984;BME280;15317;50.360;8.726;2023-03-22T10:33:34;98969.41;;;12.97;84.10
27984;BME280;15317;50.360;8.726;2023-03-22T10:37:38;98977.22;;;12.86;83.35
27984;BME280;15317;50.360;8.726;2023-03-22T10:41:41;98974.88;;;12.83;83.03
27984;BME280;15317;50.360;8.726;2023-03-22T10:45:44;98965.72;;;12.90;83.68
27984;BME280;15317;50.360;8.726;2023-03-22T10:49:50;98973.59;;;13.23;83.39
27984;BME280;15317;50.360;8.726;2023-03-22T10:53:54;98975.16;;;13.32;81.04
27984;BME280;15317;50.360;8.726;2023-03-22T10:58:09;98976.94;;;13.39;82.75
27984;BME280;15317;50.360;8.726;2023-03-22T11:02:23;98969.50;;;13.48;82.75
27984;BME280;15317;50.360;8.726;2023-03-22T11:06:29;98971.03;;;13.72;79.38
27984;BME280;15317;50.360;8.726;2023-03-22T11:10:32;98962.31;;;14.19;78.20
27984;BME280;15317;50.360;8.726;2023-03-22T11:14:35;98963.56;;;14.66;72.43
27984;BME280;15317;50.360;8.726;2023-03-22T11:18:40;98955.47;;;15.13;70.11
27984;BME280;15317;50.360;8.726;2023-03-22T11:22:44;98957.81;;;15.57;66.57
27984;BME280;15317;50.360;8.726;2023-03-22T11:27:01;98957.13;;;15.49;65.52
27984;BME280;15317;50.360;8.726;2023-03-22T11:31:06;98939.34;;;15.31;65.25
27984;BME280;15317;50.360;8.726;2023-03-22T11:35:12;98919.88;;;15.48;66.43
27984;BME280;15317;50.360;8.726;2023-03-22T11:39:15;98922.16;;;15.51;65.78
27984;BME280;15317;50.360;8.726;2023-03-22T11:43:20;98918.28;;;15.79;67.74
27984;BME280;15317;50.360;8.726;2023-03-22T11:47:25;98922.31;;;15.97;66.17
27984;BME280;15317;50.360;8.726;2023-03-22T11:51:29;98917.06;;;16.02;66.23
27984;BME280;15317;50.360;8.726;2023-03-22T11:55:35;98899.34;;;15.85;65.17
27984;BME280;15317;50.360;8.726;2023-03-22T11:59:38;98912.22;;;15.97;65.76
27984;BME280;15317;50.360;8.726;2023-03-22T12:03:42;98907.81;;;16.16;62.03
27984;BME280;15317;50.360;8.726;2023-03-22T12:07:47;98896.03;;;16.15;61.08
27984;BME280;15317;50.360;8.726;2023-03-22T12:11:55;98894.53;;;16.46;61.85
27984;BME280;15317;50.360;8.726;2023-03-22T12:16:01;98911.41;;;16.30;59.65
27984;BME280;15317;50.360;8.726;2023-03-22T12:20:09;98888.63;;;16.49;59.23
27984;BME280;15317;50.360;8.726;2023-03-22T12:24:23;98895.38;;;16.40;57.26
27984;BME280;15317;50.360;8.726;2023-03-22T12:28:30;98908.22;;;16.46;58.96
27984;BME280;15317;50.360;8.726;2023-03-22T12:32:36;98897.91;;;16.48;58.69
27984;BME280;15317;50.360;8.726;2023-03-22T12:36:43;98896.00;;;16.55;56.52
27984;BME280;15317;50.360;8.726;2023-03-22T12:40:48;98882.97;;;16.64;57.11
27984;BME280;15317;50.360;8.726;2023-03-22T12:44:56;98861.81;;;16.90;56.46
27984;BME280;15317;50.360;8.726;2023-03-22T12:49:02;98873.22;;;16.74;54.14
27984;BME280;15317;50.360;8.726;2023-03-22T12:53:10;98863.13;;;16.68;53.15
27984;BME280;15317;50.360;8.726;2023-03-22T12:57:14;98867.31;;;16.77;54.43
27984;BME280;15317;50.360;8.726;2023-03-22T13:01:22;98867.28;;;16.90;54.31
27984;BME280;15317;50.360;8.726;2023-03-22T13:05:32;98856.25;;;17.04;53.72
27984;BME280;15317;50.360;8.726;2023-03-22T13:09:37;98846.47;;;16.63;54.44
27984;BME280;15317;50.360;8.726;2023-03-22T13:13:44;98865.44;;;16.58;54.15
27984;BME280;15317;50.360;8.726;2023-03-22T13:17:48;98855.06;;;16.73;51.65
27984;BME280;15317;50.360;8.726;2023-03-22T13:21:50;98862.03;;;16.82;51.55
27984;BME280;15317;50.360;8.726;2023-03-22T13:26:01;98840.44;;;17.06;52.94
27984;BME280;15317;50.360;8.726;2023-03-22T13:30:06;98841.69;;;17.10;51.83
27984;BME280;15317;50.360;8.726;2023-03-22T13:34:19;98824.75;;;17.13;52.74
27984;BME280;15317;50.360;8.726;2023-03-22T13:38:23;98821.59;;;17.16;52.04
27984;BME280;15317;50.360;8.726;2023-03-22T13:42:30;98821.44;;;17.04;52.04
27984;BME280;15317;50.360;8.726;2023-03-22T13:46:48;98816.06;;;17.22;53.37
27984;BME280;15317;50.360;8.726;2023-03-22T13:50:52;98806.75;;;17.30;51.36
27984;BME280;15317;50.360;8.726;2023-03-22T13:54:57;98810.97;;;17.32;50.86
27984;BME280;15317;50.360;8.726;2023-03-22T13:59:00;98806.31;;;17.33;49.96
27984;BME280;15317;50.360;8.726;2023-03-22T14:03:12;98814.53;;;17.40;49.37
27984;BME280;15317;50.360;8.726;2023-03-22T14:07:21;98806.03;;;17.03;48.51
27984;BME280;15317;50.360;8.726;2023-03-22T14:11:25;98798.94;;;16.82;50.33
27984;BME280;15317;50.360;8.726;2023-03-22T14:15:31;98804.47;;;16.69;50.57
27984;BME280;15317;50.360;8.726;2023-03-22T14:19:35;98813.56;;;16.63;48.83
27984;BME280;15317;50.360;8.726;2023-03-22T14:23:41;98808.94;;;16.64;49.81
27984;BME280;15317;50.360;8.726;2023-03-22T14:27:45;98814.19;;;16.39;49.87
27984;BME280;15317;50.360;8.726;2023-03-22T14:31:55;98813.78;;;16.42;52.61
27984;BME280;15317;50.360;8.726;2023-03-22T14:36:00;98800.75;;;16.31;50.97
27984;BME280;15317;50.360;8.726;2023-03-22T14:40:13;98809.56;;;16.33;53.27
27984;BME280;15317;50.360;8.726;2023-03-22T14:44:19;98810.63;;;16.38;53.06
27984;BME280;15317;50.360;8.726;2023-03-22T14:48:22;98811.91;;;16.36;53.23
27984;BME280;15317;50.360;8.726;2023-03-22T14:52:27;98822.69;;;16.31;54.03
27984;BME280;15317;50.360;8.726;2023-03-22T14:56:32;98822.06;;;16.02;53.73
27984;BME280;15317;50.360;8.726;2023-03-22T15:00:39;98816.78;;;15.94;55.09
27984;BME280;15317;50.360;8.726;2023-03-22T15:04:41;98800.34;;;15.81;55.73
27984;BME280;15317;50.360;8.726;2023-03-22T15:08:45;98801.19;;;15.68;54.89
27984;BME280;15317;50.360;8.726;2023-03-22T15:12:51;98798.66;;;15.60;55.67
27984;BME280;15317;50.360;8.726;2023-03-22T15:16:54;98802.03;;;15.56;56.69
27984;BME280;15317;50.360;8.726;2023-03-22T15:20:57;98795.66;;;15.49;56.35
27984;BME280;15317;50.360;8.726;2023-03-22T15:25:02;98809.09;;;15.37;56.02
27984;BME280;15317;50.360;8.726;2023-03-22T15:29:07;98796.69;;;15.34;56.16
27984;BME280;15317;50.360;8.726;2023-03-22T15:33:16;98793.47;;;15.24;56.89
27984;BME280;15317;50.360;8.726;2023-03-22T15:37:25;98792.63;;;15.17;56.03
27984;BME280;15317;50.360;8.726;2023-03-22T15:41:34;98788.84;;;15.18;57.27
27984;BME280;15317;50.360;8.726;2023-03-22T15:45:39;98781.47;;;15.19;57.04
27984;BME280;15317;50.360;8.726;2023-03-22T15:49:45;98775.78;;;15.07;59.01
27984;BME280;15317;50.360;8.726;2023-03-22T15:53:48;98788.38;;;15.08;57.57
27984;BME280;15317;50.360;8.726;2023-03-22T15:57:52;98781.25;;;15.07;57.93
27984;BME280;15317;50.360;8.726;2023-03-22T16:01:57;98791.34;;;15.07;58.15
27984;BME280;15317;50.360;8.726;2023-03-22T16:06:00;98781.44;;;15.06;58.82
27984;BME280;15317;50.360;8.726;2023-03-22T16:10:02;98791.75;;;15.03;59.07
27984;BME280;15317;50.360;8.726;2023-03-22T16:14:04;98795.75;;;15.01;56.63
27984;BME280;15317;50.360;8.726;2023-03-22T16:18:13;98801.84;;;15.03;58.85
27984;BME280;15317;50.360;8.726;2023-03-22T16:22:18;98795.66;;;14.88;58.65
27984;BME280;15317;50.360;8.726;2023-03-22T16:26:20;98795.44;;;14.83;58.21
27984;BME280;15317;50.360;8.726;2023-03-22T16:30:22;98801.50;;;14.72;58.15
27984;BME280;15317;50.360;8.726;2023-03-22T16:34:26;98768.69;;;14.72;56.80
27984;BME280;15317;50.360;8.726;2023-03-22T16:38:28;98775.22;;;14.71;57.01
27984;BME280;15317;50.360;8.726;2023-03-22T16:42:30;98778.13;;;14.62;56.09
27984;BME280;15317;50.360;8.726;2023-03-22T16:46:32;98784.00;;;14.59;56.01
27984;BME280;15317;50.360;8.726;2023-03-22T16:50:39;98788.13;;;14.49;57.53
27984;BME280;15317;50.360;8.726;2023-03-22T16:54:42;98797.34;;;14.41;58.56
27984;BME280;15317;50.360;8.726;2023-03-22T16:58:44;98802.31;;;14.31;59.90
27984;BME280;15317;50.360;8.726;2023-03-22T17:02:47;98801.19;;;14.19;59.86
27984;BME280;15317;50.360;8.726;2023-03-22T17:06:51;98809.31;;;14.12;60.40
27984;BME280;15317;50.360;8.726;2023-03-22T17:10:54;98798.72;;;14.03;61.88
27984;BME280;15317;50.360;8.726;2023-03-22T17:14:57;98812.53;;;13.95;61.75
27984;BME280;15317;50.360;8.726;2023-03-22T17:18:59;98816.75;;;13.97;59.70
27984;BME280;15317;50.360;8.726;2023-03-22T17:23:04;98811.78;;;14.07;59.53
27984;BME280;15317;50.360;8.726;2023-03-22T17:27:10;98809.50;;;14.11;60.33
27984;BME280;15317;50.360;8.726;2023-03-22T17:31:14;98814.31;;;14.09;61.17
27984;BME280;15317;50.360;8.726;2023-03-22T17:35:18;98820.97;;;14.00;62.10
27984;BME280;15317;50.360;8.726;2023-03-22T17:39:26;98816.81;;;14.04;60.77
27984;BME280;15317;50.360;8.726;2023-03-22T17:43:31;98808.63;;;14.04;59.44
27984;BME280;15317;50.360;8.726;2023-03-22T17:47:33;98818.31;;;14.13;59.98
27984;BME280;15317;50.360;8.726;2023-03-22T17:51:36;98820.63;;;14.09;60.12
27984;BME280;15317;50.360;8.726;2023-03-22T17:55:39;98814.28;;;14.02;60.84
27984;BME280;15317;50.360;8.726;2023-03-22T17:59:41;98802.69;;;14.00;59.99
27984;BME280;15317;50.360;8.726;2023-03-22T18:03:43;98799.97;;;14.00;59.59
27984;BME280;15317;50.360;8.726;2023-03-22T18:07:45;98806.28;;;14.01;60.00
27984;BME280;15317;50.360;8.726;2023-03-22T18:11:48;98799.53;;;13.97;60.90
27984;BME280;15317;50.360;8.726;2023-03-22T18:15:51;98802.63;;;13.94;61.01
27984;BME280;15317;50.360;8.726;2023-03-22T18:19:53;98806.97;;;13.81;63.20
27984;BME280;15317;50.360;8.726;2023-03-22T18:23:54;98798.06;;;13.73;63.42
27984;BME280;15317;50.360;8.726;2023-03-22T18:27:58;98787.09;;;13.66;63.51
27984;BME280;15317;50.360;8.726;2023-03-22T18:32:00;98790.78;;;13.59;64.31
27984;BME280;15317;50.360;8.726;2023-03-22T18:36:02;98792.06;;;13.56;64.36
27984;BME280;15317;50.360;8.726;2023-03-22T18:40:05;98785.50;;;13.51;64.54
27984;BME280;15317;50.360;8.726;2023-03-22T18:44:10;98789.03;;;13.51;64.69
27984;BME280;15317;50.360;8.726;2023-03-22T18:48:12;98792.84;;;13.50;64.77
27984;BME280;15317;50.360;8.726;2023-03-22T18:52:14;98783.53;;;13.44;64.76
27984;BME280;15317;50.360;8.726;2023-03-22T18:56:16;98781.63;;;13.45;63.68
27984;BME280;15317;50.360;8.726;2023-03-22T19:00:20;98780.66;;;13.53;63.02
27984;BME280;15317;50.360;8.726;2023-03-22T19:04:22;98786.97;;;13.53;63.02
27984;BME280;15317;50.360;8.726;2023-03-22T19:08:24;98799.94;;;13.51;63.78
27984;BME280;15317;50.360;8.726;2023-03-22T19:12:26;98795.94;;;13.47;64.26
27984;BME280;15317;50.360;8.726;2023-03-22T19:16:29;98791.41;;;13.54;62.88
27984;BME280;15317;50.360;8.726;2023-03-22T19:20:31;98779.03;;;13.58;62.81
27984;BME280;15317;50.360;8.726;2023-03-22T19:24:34;98791.16;;;13.49;65.27
27984;BME280;15317;50.360;8.726;2023-03-22T19:28:37;98782.28;;;13.47;63.72
27984;BME280;15317;50.360;8.726;2023-03-22T19:32:40;98776.47;;;13.50;64.65
27984;BME280;15317;50.360;8.726;2023-03-22T19:36:42;98779.75;;;13.45;64.93
27984;BME280;15317;50.360;8.726;2023-03-22T19:40:45;98773.22;;;13.40;65.19
27984;BME280;15317;50.360;8.726;2023-03-22T19:44:47;98774.66;;;13.36;65.52
27984;BME280;15317;50.360;8.726;2023-03-22T19:48:50;98767.25;;;13.30;64.48
27984;BME280;15317;50.360;8.726;2023-03-22T19:52:52;98762.84;;;13.29;65.62
27984;BME280;15317;50.360;8.726;2023-03-22T19:56:54;98769.44;;;13.20;64.94
27984;BME280;15317;50.360;8.726;2023-03-22T20:00:56;98770.22;;;13.14;65.63
27984;BME280;15317;50.360;8.726;2023-03-22T20:05:00;98766.28;;;13.01;66.81
27984;BME280;15317;50.360;8.726;2023-03-22T20:09:02;98768.09;;;12.94;66.61
27984;BME280;15317;50.360;8.726;2023-03-22T20:13:05;98764.03;;;12.90;66.27
27984;BME280;15317;50.360;8.726;2023-03-22T20:17:07;98766.50;;;12.85;66.75
27984;BME280;15317;50.360;8.726;2023-03-22T20:21:10;98751.47;;;12.89;65.61
27984;BME280;15317;50.360;8.726;2023-03-22T20:25:12;98750.31;;;12.98;65.75
27984;BME280;15317;50.360;8.726;2023-03-22T20:29:14;98746.41;;;12.86;66.27
27984;BME280;15317;50.360;8.726;2023-03-22T20:33:18;98739.66;;;12.82;65.86
27984;BME280;15317;50.360;8.726;2023-03-22T20:37:21;98737.13;;;12.81;65.30
27984;BME280;15317;50.360;8.726;2023-03-22T20:41:23;98737.13;;;12.81;64.72
27984;BME280;15317;50.360;8.726;2023-03-22T20:45:25;98732.03;;;12.78;65.99
27984;BME280;15317;50.360;8.726;2023-03-22T20:49:27;98726.78;;;12.76;65.51
27984;BME280;15317;50.360;8.726;2023-03-22T20:53:31;98728.47;;;12.77;65.16
27984;BME280;15317;50.360;8.726;2023-03-22T20:57:33;98724.06;;;12.76;64.89
27984;BME280;15317;50.360;8.726;2023-03-22T21:01:35;98731.19;;;12.77;65.86
27984;BME280;15317;50.360;8.726;2023-03-22T21:05:37;98722.75;;;12.72;66.28
27984;BME280;15317;50.360;8.726;2023-03-22T21:09:41;98723.91;;;12.63;67.38
27984;BME280;15317;50.360;8.726;2023-03-22T21:13:43;98718.00;;;12.59;66.66
27984;BME280;15317;50.360;8.726;2023-03-22T21:17:45;98712.47;;;12.53;67.03
27984;BME280;15317;50.360;8.726;2023-03-22T21:21:47;98715.38;;;12.51;67.14
27984;BME280;15317;50.360;8.726;2023-03-22T21:25:54;98712.38;;;12.61;66.22
27984;BME280;15317;50.360;8.726;2023-03-22T21:29:56;98709.91;;;12.66;67.02
27984;BME280;15317;50.360;8.726;2023-03-22T21:33:59;98701.47;;;12.61;67.17
27984;BME280;15317;50.360;8.726;2023-03-22T21:38:01;98701.00;;;12.57;67.09